createdAt,value
2022-11-01T00:01:07.056Z,100438.88
2022-11-01T00:03:35.469Z,100441.28
2022-11-01T00:06:01.798Z,100436.44
2022-11-01T00:08:28.482Z,100435.63
2022-11-01T00:11:01.333Z,100431.59
2022-11-01T00:13:27.616Z,100433.59
2022-11-01T00:15:53.887Z,100435.59
2022-11-01T00:18:21.520Z,100423.88
2022-11-01T00:20:48.470Z,100433.53
2022-11-01T00:23:14.713Z,100432.25
2022-11-01T00:25:41.305Z,100432.56
2022-11-01T00:28:07.597Z,100430.47
2022-11-01T00:30:37.276Z,100426.34
2022-11-01T00:33:04.087Z,100427.00
2022-11-01T00:35:34.198Z,100426.47
2022-11-01T00:38:00.997Z,100422.31
2022-11-01T00:40:27.700Z,100418.13
2022-11-01T00:42:53.971Z,100413.19
2022-11-01T00:45:20.410Z,100416.72
2022-11-01T00:47:47.404Z,100404.13
2022-11-01T00:50:14.048Z,100413.69
2022-11-01T00:52:40.531Z,100405.91
2022-11-01T00:55:07.025Z,100396.53
2022-11-01T00:57:35.331Z,100392.03
2022-11-01T01:00:02.131Z,100384.66
2022-11-01T01:02:28.603Z,100365.63
2022-11-01T01:04:55.098Z,100376.91
2022-11-01T01:07:21.332Z,100392.22
2022-11-01T01:09:48.732Z,100407.97
2022-11-01T01:12:14.994Z,100411.19
2022-11-01T01:14:41.401Z,100398.19
2022-11-01T01:17:07.855Z,100386.47
2022-11-01T01:19:34.345Z,100375.16
2022-11-01T01:22:01.104Z,100374.72
2022-11-01T01:24:27.729Z,100392.09
2022-11-01T01:26:54.155Z,100401.38
2022-11-01T01:29:20.628Z,100390.06
2022-11-01T01:31:46.926Z,100384.41
2022-11-01T01:34:16.057Z,100376.72
2022-11-01T01:36:42.588Z,100380.38
2022-11-01T01:39:09.421Z,100385.22
2022-11-01T01:41:54.452Z,100390.88
2022-11-01T01:44:39.757Z,100386.84
2022-11-01T01:47:06.646Z,100388.88
2022-11-01T01:49:33.051Z,100397.00
2022-11-01T01:51:59.481Z,100382.88
2022-11-01T01:54:26.379Z,100390.19
2022-11-01T01:56:52.988Z,100384.13
2022-11-01T01:59:20.627Z,100383.28
2022-11-01T02:01:47.022Z,100384.53
2022-11-01T02:04:25.860Z,100372.41
2022-11-01T02:06:52.792Z,100355.06
2022-11-01T02:09:19.399Z,100354.66
2022-11-01T02:11:45.716Z,100351.47
2022-11-01T02:14:14.112Z,100360.41
2022-11-01T02:16:56.740Z,100349.91
2022-11-01T02:19:42.437Z,100341.03
2022-11-01T02:22:17.433Z,100339.88
2022-11-01T02:24:43.700Z,100350.00
2022-11-01T02:27:28.856Z,100354.84
2022-11-01T02:30:09.221Z,100346.00
2022-11-01T02:32:38.741Z,100355.72
2022-11-01T02:35:26.362Z,100343.22
2022-11-01T02:37:55.705Z,100360.63
2022-11-01T02:40:28.448Z,100359.03
2022-11-01T02:42:59.105Z,100349.31
2022-11-01T02:45:32.275Z,100357.78
2022-11-01T02:47:59.593Z,100352.56
2022-11-01T02:50:30.716Z,100345.69
2022-11-01T02:52:57.419Z,100352.94
2022-11-01T02:55:30.328Z,100355.75
2022-11-01T02:58:07.440Z,100357.78
2022-11-01T03:00:35.414Z,100362.66
2022-11-01T03:03:04.644Z,100360.63
2022-11-01T03:05:37.844Z,100365.47
2022-11-01T03:08:05.893Z,100363.06
2022-11-01T03:10:51.237Z,100360.66
2022-11-01T03:13:32.728Z,100368.78
2022-11-01T03:16:06.790Z,100360.34
2022-11-01T03:18:35.355Z,100359.53
2022-11-01T03:21:15.449Z,100359.97
2022-11-01T03:24:02.079Z,100365.63
2022-11-01T03:26:29.452Z,100357.94
2022-11-01T03:28:59.082Z,100363.59
2022-11-01T03:31:28.038Z,100370.41
2022-11-01T03:33:57.163Z,100370.81
2022-11-01T03:36:24.593Z,100363.50
2022-11-01T03:38:59.756Z,100369.53
2022-11-01T03:41:30.459Z,100371.50
2022-11-01T03:43:56.792Z,100361.78
2022-11-01T03:46:23.250Z,100372.69
2022-11-01T03:48:49.506Z,100376.69
2022-11-01T03:51:15.767Z,100374.66
2022-11-01T03:53:42.020Z,100369.81
2022-11-01T03:56:08.858Z,100383.09
2022-11-01T03:58:41.965Z,100382.31
2022-11-01T04:01:09.109Z,100390.38
2022-11-01T04:03:36.103Z,100401.28
2022-11-01T04:06:02.477Z,100388.72
2022-11-01T04:08:28.896Z,100381.03
2022-11-01T04:10:55.284Z,100394.75
2022-11-01T04:13:21.637Z,100409.28
2022-11-01T04:16:06.439Z,100401.59
2022-11-01T04:18:51.451Z,100397.53
2022-11-01T04:21:20.716Z,100404.00
2022-11-01T04:23:48.071Z,100408.88
2022-11-01T04:26:21.708Z,100410.47
2022-11-01T04:28:57.802Z,100424.59
2022-11-01T04:31:29.022Z,100424.59
2022-11-01T04:33:56.128Z,100420.19
2022-11-01T04:36:22.606Z,100420.97
2022-11-01T04:38:52.603Z,100420.19
2022-11-01T04:41:19.622Z,100429.09
2022-11-01T04:43:47.061Z,100411.72
2022-11-01T04:46:13.561Z,100417.81
2022-11-01T04:48:39.936Z,100413.41
2022-11-01T04:51:06.389Z,100410.97
2022-11-01T04:53:32.709Z,100410.59
2022-11-01T04:55:59.140Z,100417.50
2022-11-01T04:58:25.359Z,100422.75
2022-11-01T05:00:52.063Z,100423.97
2022-11-01T05:03:18.537Z,100430.88
2022-11-01T05:05:44.782Z,100430.06
2022-11-01T05:08:12.377Z,100443.41
2022-11-01T05:10:40.007Z,100445.03
2022-11-01T05:13:06.911Z,100445.81
2022-11-01T05:15:33.724Z,100444.22
2022-11-01T05:18:01.882Z,100444.22
2022-11-01T05:20:29.147Z,100442.19
2022-11-01T05:23:02.669Z,100456.34
2022-11-01T05:25:31.449Z,100457.56
2022-11-01T05:28:01.505Z,100452.31
2022-11-01T05:30:27.989Z,100457.59
2022-11-01T05:32:58.488Z,100454.81
2022-11-01T05:35:24.794Z,100462.91
2022-11-01T05:37:51.204Z,100463.31
2022-11-01T05:40:17.636Z,100462.59
2022-11-01T05:42:44.056Z,100465.81
2022-11-01T05:45:10.731Z,100465.03
2022-11-01T05:47:40.246Z,100471.13
2022-11-01T05:50:07.576Z,100470.34
2022-11-01T05:52:33.989Z,100482.09
2022-11-01T05:55:00.278Z,100472.84
2022-11-01T05:57:29.711Z,100476.53
2022-11-01T05:59:59.418Z,100487.44
2022-11-01T06:02:25.899Z,100495.13
2022-11-01T06:04:52.171Z,100486.69
2022-11-01T06:07:18.435Z,100488.31
2022-11-01T06:09:44.717Z,100495.59
2022-11-01T06:12:10.924Z,100489.94
2022-11-01T06:14:37.352Z,100501.28
2022-11-01T06:17:06.165Z,100512.16
2022-11-01T06:19:32.805Z,100509.34
2022-11-01T06:21:59.079Z,100506.50
2022-11-01T06:24:26.762Z,100509.34
2022-11-01T06:26:53.035Z,100514.56
2022-11-01T06:29:19.490Z,100523.84
2022-11-01T06:31:45.743Z,100533.16
2022-11-01T06:34:12.192Z,100538.81
2022-11-01T06:36:38.454Z,100540.41
2022-11-01T06:39:04.746Z,100550.91
2022-11-01T06:41:31.160Z,100540.00
2022-11-01T06:43:57.453Z,100561.81
2022-11-01T06:46:23.675Z,100568.25
2022-11-01T06:48:50.142Z,100571.88
2022-11-01T06:51:16.606Z,100573.09
2022-11-01T06:53:43.191Z,100570.25
2022-11-01T06:56:09.396Z,100573.09
2022-11-01T06:58:35.805Z,100575.09
2022-11-01T07:01:02.992Z,100586.41
2022-11-01T07:03:29.355Z,100598.53
2022-11-01T07:05:55.789Z,100590.88
2022-11-01T07:08:22.012Z,100613.06
2022-11-01T07:10:50.085Z,100608.63
2022-11-01T07:13:16.532Z,100619.09
2022-11-01T07:15:42.943Z,100620.31
2022-11-01T07:18:09.494Z,100631.22
2022-11-01T07:20:41.521Z,100638.50
2022-11-01T07:23:15.479Z,100644.94
2022-11-01T07:25:42.101Z,100645.31
2022-11-01T07:28:08.549Z,100658.66
2022-11-01T07:30:34.944Z,100661.88
2022-11-01T07:33:04.111Z,100657.84
2022-11-01T07:35:30.678Z,100658.22
2022-11-01T07:38:02.760Z,100685.28
2022-11-01T07:40:31.689Z,100692.16
2022-11-01T07:42:59.910Z,100690.97
2022-11-01T07:45:27.256Z,100699.06
2022-11-01T07:47:53.819Z,100702.72
2022-11-01T07:50:20.101Z,100713.63
2022-11-01T07:52:46.314Z,100721.75
2022-11-01T07:55:12.744Z,100731.44
2022-11-01T07:57:39.659Z,100730.63
2022-11-01T08:00:06.691Z,100739.97
2022-11-01T08:02:33.586Z,100739.97
2022-11-01T08:04:59.972Z,100744.88
2022-11-01T08:07:26.392Z,100756.19
2022-11-01T08:09:52.812Z,100770.34
2022-11-01T08:12:19.108Z,100770.34
2022-11-01T08:14:45.360Z,100772.78
2022-11-01T08:17:11.587Z,100772.81
2022-11-01T08:19:37.919Z,100780.50
2022-11-01T08:22:04.238Z,100775.63
2022-11-01T08:24:30.479Z,100779.28
2022-11-01T08:26:56.857Z,100785.34
2022-11-01T08:29:23.120Z,100790.19
2022-11-01T08:31:49.528Z,100795.41
2022-11-01T08:34:16.885Z,100794.22
2022-11-01T08:36:43.476Z,100786.97
2022-11-01T08:41:41.066Z,100797.03
2022-11-01T08:44:07.504Z,100811.13
2022-11-01T08:46:33.795Z,100809.13
2022-11-01T08:49:00.650Z,100801.06
2022-11-01T08:51:27.508Z,100821.22
2022-11-01T08:53:56.976Z,100814.34
2022-11-01T08:56:25.060Z,100814.34
2022-11-01T08:58:51.901Z,100836.97
2022-11-01T09:01:18.338Z,100820.41
2022-11-01T09:03:45.017Z,100832.94
2022-11-01T09:06:11.475Z,100833.34
2022-11-01T09:08:37.692Z,100849.91
2022-11-01T09:11:05.974Z,100854.72
2022-11-01T09:13:32.712Z,100862.81
2022-11-01T09:16:01.478Z,100865.22
2022-11-01T09:18:29.026Z,100869.25
2022-11-01T09:20:55.973Z,100867.22
2022-11-01T09:23:22.257Z,100856.34
2022-11-01T09:25:48.539Z,100866.81
2022-11-01T09:28:14.748Z,100886.19
2022-11-01T09:30:49.629Z,100868.84
2022-11-01T09:33:23.512Z,100877.72
2022-11-01T09:35:54.098Z,100874.09
2022-11-01T09:38:24.428Z,100880.53
2022-11-01T09:40:59.064Z,100881.34
2022-11-01T09:43:27.848Z,100879.72
2022-11-01T09:45:55.716Z,100888.19
2022-11-01T09:48:25.615Z,100891.44
2022-11-01T09:50:52.051Z,100889.81
2022-11-01T09:53:24.630Z,100891.44
2022-11-01T09:55:57.214Z,100885.38
2022-11-01T09:58:34.091Z,100892.63
2022-11-01T10:01:06.337Z,100901.91
2022-11-01T10:03:35.830Z,100895.44
2022-11-01T10:06:08.781Z,100906.75
2022-11-01T10:08:41.162Z,100907.56
2022-11-01T10:11:19.008Z,100908.38
2022-11-01T10:13:48.411Z,100899.09
2022-11-01T10:16:14.817Z,100924.53
2022-11-01T10:18:59.803Z,100912.00
2022-11-01T10:21:29.772Z,100903.94
2022-11-01T10:23:59.103Z,100907.94
2022-11-01T10:26:26.939Z,100921.69
2022-11-01T10:28:53.191Z,100918.47
2022-11-01T10:31:22.664Z,100920.88
2022-11-01T10:33:52.248Z,100922.09
2022-11-01T10:36:21.159Z,100923.69
2022-11-01T10:39:29.968Z,100921.25
2022-11-01T10:41:42.206Z,100927.34
2022-11-01T10:44:28.708Z,100930.13
2022-11-01T10:46:55.497Z,100934.19
2022-11-01T10:49:40.441Z,100924.06
2022-11-01T10:52:17.584Z,100935.41
2022-11-01T10:54:45.119Z,100933.00
2022-11-01T10:57:15.147Z,100928.53
2022-11-01T10:59:43.230Z,100931.75
2022-11-01T11:02:23.803Z,100927.31
2022-11-01T11:04:50.353Z,100922.84
2022-11-01T11:07:21.334Z,100921.63
2022-11-01T11:09:51.279Z,100923.22
2022-11-01T11:12:19.131Z,100926.03
2022-11-01T11:14:47.229Z,100919.16
2022-11-01T11:17:33.765Z,100921.16
2022-11-01T11:20:05.537Z,100927.22
2022-11-01T11:22:36.342Z,100919.91
2022-11-01T11:25:03.237Z,100923.97
2022-11-01T11:27:31.058Z,100915.44
2022-11-01T11:29:59.000Z,100913.00
2022-11-01T11:32:27.343Z,100929.56
2022-11-01T11:34:58.169Z,100928.75
2022-11-01T11:37:26.677Z,100920.66
2022-11-01T11:40:01.177Z,100922.66
2022-11-01T11:42:27.600Z,100928.72
2022-11-01T11:44:55.854Z,100929.94
2022-11-01T11:47:24.709Z,100932.75
2022-11-01T11:49:53.855Z,100935.56
2022-11-01T11:52:28.812Z,100938.00
2022-11-01T11:54:56.593Z,100935.56
2022-11-01T11:57:29.753Z,100939.19
2022-11-01T11:59:58.883Z,100936.78
2022-11-01T12:02:30.811Z,100944.41
2022-11-01T12:05:03.517Z,100942.00
2022-11-01T12:07:37.072Z,100946.00
2022-11-01T12:10:07.413Z,100943.59
2022-11-01T12:12:42.691Z,100938.72
2022-11-01T12:15:26.177Z,100944.78
2022-11-01T12:17:53.288Z,100933.44
2022-11-01T12:20:35.727Z,100934.25
2022-11-01T12:23:14.577Z,100928.19
2022-11-01T12:25:42.977Z,100939.09
2022-11-01T12:28:23.123Z,100950.00
2022-11-01T12:30:51.339Z,100943.94
2022-11-01T12:33:43.885Z,100944.75
2022-11-01T12:36:11.613Z,100946.34
2022-11-01T12:38:54.721Z,100951.59
2022-11-01T12:41:20.943Z,100950.78
2022-11-01T12:44:06.013Z,100948.75
2022-11-01T12:46:47.047Z,100939.03
2022-11-01T12:49:29.488Z,100945.50
2022-11-01T12:51:58.654Z,100947.94
2022-11-01T12:54:29.229Z,100943.88
2022-11-01T12:56:56.598Z,100945.91
2022-11-01T12:59:34.404Z,100942.69
2022-11-01T13:02:19.726Z,100954.84
2022-11-01T13:04:49.297Z,100938.22
2022-11-01T13:07:21.691Z,100941.06
2022-11-01T13:09:47.933Z,100936.22
2022-11-01T13:12:22.894Z,100940.25
2022-11-01T13:15:03.697Z,100944.75
2022-11-01T13:17:32.797Z,100943.09
2022-11-01T13:20:14.573Z,100941.94
2022-11-01T13:23:00.147Z,100939.53
2022-11-01T13:25:26.645Z,100940.72
2022-11-01T13:28:11.591Z,100940.72
2022-11-01T13:30:39.950Z,100931.84
2022-11-01T13:33:14.977Z,100928.59
2022-11-01T13:36:03.296Z,100929.00
2022-11-01T13:38:44.806Z,100933.88
2022-11-01T13:41:19.673Z,100923.78
2022-11-01T13:43:49.831Z,100934.28
2022-11-01T13:46:30.782Z,100924.97
2022-11-01T13:49:20.085Z,100937.50
2022-11-01T13:51:57.686Z,100936.28
2022-11-01T13:54:24.153Z,100941.97
2022-11-01T13:56:55.083Z,100947.25
2022-11-01T13:59:32.478Z,100937.94
2022-11-01T14:02:31.044Z,100939.97
2022-11-01T14:04:58.698Z,100948.84
2022-11-01T14:07:25.852Z,100940.78
2022-11-01T14:09:53.070Z,100943.22
2022-11-01T14:12:30.612Z,100946.06
2022-11-01T14:15:09.677Z,100941.63
2022-11-01T14:17:35.992Z,100948.09
2022-11-01T14:20:06.484Z,100941.63
2022-11-01T14:22:33.527Z,100942.03
2022-11-01T14:25:01.654Z,100944.03
2022-11-01T14:27:27.894Z,100935.97
2022-11-01T14:29:55.183Z,100940.84
2022-11-01T14:32:23.099Z,100937.19
2022-11-01T14:35:09.761Z,100946.91
2022-11-01T14:37:38.420Z,100937.59
2022-11-01T14:40:23.558Z,100939.59
2022-11-01T14:42:52.125Z,100939.22
2022-11-01T14:45:35.878Z,100945.69
2022-11-01T14:48:21.498Z,100953.00
2022-11-01T14:50:52.351Z,100947.75
2022-11-01T14:53:19.966Z,100949.38
2022-11-01T14:55:46.237Z,100952.63
2022-11-01T14:58:20.330Z,100955.03
2022-11-01T15:00:48.470Z,100940.91
2022-11-01T15:03:15.259Z,100940.50
2022-11-01T15:05:43.356Z,100942.53
2022-11-01T15:08:28.121Z,100943.38
2022-11-01T15:10:56.149Z,100941.78
2022-11-01T15:13:23.574Z,100947.44
2022-11-01T15:16:01.809Z,100948.66
2022-11-01T15:18:28.478Z,100951.91
2022-11-01T15:20:56.384Z,100947.47
2022-11-01T15:23:28.603Z,100947.50
2022-11-01T15:25:56.548Z,100959.22
2022-11-01T15:28:26.334Z,100949.94
2022-11-01T15:30:55.896Z,100954.78
2022-11-01T15:33:24.218Z,100956.00
2022-11-01T15:35:59.357Z,100952.38
2022-11-01T15:38:27.131Z,100961.25
2022-11-01T15:40:53.660Z,100958.84
2022-11-01T15:43:19.913Z,100959.25
2022-11-01T15:45:49.195Z,100957.22
2022-11-01T15:48:18.499Z,100960.44
2022-11-01T15:51:01.728Z,100961.66
2022-11-01T15:53:30.439Z,100960.03
2022-11-01T15:56:09.940Z,100959.63
2022-11-01T15:58:38.815Z,100965.28
2022-11-01T16:01:13.512Z,100962.44
2022-11-01T16:03:45.161Z,100970.94
2022-11-01T16:06:17.471Z,100971.66
2022-11-01T16:08:50.858Z,100976.09
2022-11-01T16:11:22.493Z,100976.91
2022-11-01T16:13:54.581Z,100979.31
2022-11-01T16:16:21.011Z,100982.53
2022-11-01T16:18:49.497Z,100971.19
2022-11-01T16:21:18.757Z,100969.56
2022-11-01T16:24:09.972Z,100982.47
2022-11-01T16:26:51.622Z,100980.81
2022-11-01T16:29:17.980Z,100982.41
2022-11-01T16:31:44.284Z,100976.34
2022-11-01T16:34:22.601Z,100982.38
2022-11-01T16:36:48.844Z,100985.56
2022-11-01T16:39:24.322Z,100980.69
2022-11-01T16:41:52.207Z,100979.84
2022-11-01T16:44:18.920Z,100979.81
2022-11-01T16:46:45.249Z,100991.88
2022-11-01T16:49:19.676Z,100983.78
2022-11-01T16:51:45.953Z,100983.75
2022-11-01T16:54:12.759Z,100990.22
2022-11-01T16:56:41.591Z,100998.63
2022-11-01T16:59:16.671Z,100989.34
2022-11-01T17:01:45.105Z,100991.31
2022-11-01T17:04:11.925Z,100998.94
2022-11-01T17:06:39.288Z,101004.16
2022-11-01T17:09:10.487Z,101005.78
2022-11-01T17:11:36.697Z,101006.56
2022-11-01T17:14:02.973Z,101004.13
2022-11-01T17:16:29.436Z,101011.34
2022-11-01T17:18:57.545Z,101015.75
2022-11-01T17:21:24.012Z,101014.53
2022-11-01T17:23:51.101Z,101023.38
2022-11-01T17:26:19.174Z,101024.97
2022-11-01T17:28:49.655Z,101021.72
2022-11-01T17:31:18.653Z,101027.72
2022-11-01T17:33:45.078Z,101022.91
2022-11-01T17:36:15.419Z,101008.78
2022-11-01T17:38:41.880Z,101024.44
2022-11-01T17:41:10.580Z,101013.97
2022-11-01T17:43:37.025Z,101018.34
2022-11-01T17:46:03.479Z,101019.94
2022-11-01T17:48:29.987Z,101021.16
2022-11-01T17:51:00.273Z,101026.34
2022-11-01T17:53:26.501Z,101028.72
2022-11-01T17:55:55.496Z,101029.09
2022-11-01T17:58:21.909Z,101027.06
2022-11-01T18:00:48.436Z,101030.66
2022-11-01T18:03:17.687Z,101040.31
2022-11-01T18:05:44.100Z,101040.69
2022-11-01T18:08:17.855Z,101038.25
2022-11-01T18:10:55.531Z,101039.84
2022-11-01T18:13:31.327Z,101037.41
2022-11-01T18:16:05.582Z,101044.22
2022-11-01T18:18:47.784Z,101045.03
2022-11-01T18:21:31.672Z,101051.03
2022-11-01T18:24:00.995Z,101058.25
2022-11-01T18:26:29.445Z,101049.38
2022-11-01T18:29:11.196Z,101060.22
2022-11-01T18:31:40.850Z,101065.84
2022-11-01T18:34:20.851Z,101044.09
2022-11-01T18:36:52.284Z,101039.66
2022-11-01T18:39:37.981Z,101043.66
2022-11-01T18:42:08.858Z,101044.44
2022-11-01T18:44:35.370Z,101044.03
2022-11-01T18:47:08.047Z,101039.59
2022-11-01T18:49:35.331Z,101039.16
2022-11-01T18:52:01.961Z,101053.22
2022-11-01T18:54:33.245Z,101048.78
2022-11-01T18:57:07.604Z,101052.38
2022-11-01T18:59:36.792Z,101049.13
2022-11-01T19:02:12.453Z,101044.72
2022-11-01T19:04:39.796Z,101049.53
2022-11-01T19:07:12.344Z,101045.47
2022-11-01T19:09:40.965Z,101053.50
2022-11-01T19:12:15.577Z,101044.25
2022-11-01T19:14:43.059Z,101048.63
2022-11-01T19:17:18.425Z,101045.41
2022-11-01T19:19:44.801Z,101046.97
2022-11-01T19:22:26.282Z,101046.16
2022-11-01T19:24:52.549Z,101046.53
2022-11-01T19:27:21.746Z,101052.53
2022-11-01T19:29:51.876Z,101055.75
2022-11-01T19:32:23.120Z,101047.25
2022-11-01T19:34:52.648Z,101060.50
2022-11-01T19:37:25.786Z,101058.88
2022-11-01T19:39:52.869Z,101054.00
2022-11-01T19:42:23.116Z,101054.41
2022-11-01T19:44:49.747Z,101051.19
2022-11-01T19:47:24.986Z,101045.91
2022-11-01T19:49:51.220Z,101042.69
2022-11-01T19:52:36.540Z,101044.25
2022-11-01T19:55:20.133Z,101044.25
2022-11-01T19:57:46.400Z,101043.81
2022-11-01T20:00:19.475Z,101047.81
2022-11-01T20:02:50.073Z,101043.75
2022-11-01T20:05:26.243Z,101049.75
2022-11-01T20:07:54.855Z,101042.88
2022-11-01T20:10:21.589Z,101045.28
2022-11-01T20:12:47.900Z,101046.47
2022-11-01T20:15:14.386Z,101041.22
2022-11-01T20:17:40.847Z,101050.44
2022-11-01T20:20:07.438Z,101040.78
2022-11-01T20:22:34.133Z,101039.97
2022-11-01T20:25:00.872Z,101042.34
2022-11-01T20:27:29.629Z,101051.97
2022-11-01T20:29:55.904Z,101045.94
2022-11-01T20:32:22.178Z,101040.69
2022-11-01T20:34:48.421Z,101047.50
2022-11-01T20:37:28.037Z,101053.50
2022-11-01T20:39:54.888Z,101050.69
2022-11-01T20:42:21.222Z,101039.84
2022-11-01T20:44:47.441Z,101048.28
2022-11-01T20:47:14.694Z,101042.66
2022-11-01T20:49:40.900Z,101038.19
2022-11-01T20:52:38.135Z,101043.81
2022-11-01T20:54:53.402Z,101043.00
2022-11-01T20:57:27.497Z,101045.81
2022-11-01T20:59:55.656Z,101040.19
2022-11-01T21:02:23.538Z,101044.66
2022-11-01T21:05:09.359Z,101044.66
2022-11-01T21:07:36.001Z,101045.88
2022-11-01T21:10:02.501Z,101045.50
2022-11-01T21:12:28.896Z,101037.88
2022-11-01T21:14:56.691Z,101041.13
2022-11-01T21:17:22.934Z,101038.38
2022-11-01T21:19:53.403Z,101039.97
2022-11-01T21:22:20.811Z,101050.84
2022-11-01T21:24:49.289Z,101036.38
2022-11-01T21:27:23.068Z,101037.22
2022-11-01T21:29:49.850Z,101043.66
2022-11-01T21:32:35.127Z,101043.66
2022-11-01T21:35:21.366Z,101039.19
2022-11-01T21:37:50.195Z,101036.78
2022-11-01T21:40:47.444Z,101033.16
2022-11-01T21:43:22.586Z,101027.13
2022-11-01T21:45:48.880Z,101029.13
2022-11-01T21:48:28.928Z,101027.06
2022-11-01T21:50:56.337Z,101029.06
2022-11-01T21:53:25.005Z,101025.44
2022-11-01T21:55:51.290Z,101028.63
2022-11-01T21:58:18.622Z,101027.00
2022-11-01T22:00:44.907Z,101026.19
2022-11-01T22:03:11.138Z,101017.75
2022-11-01T22:05:37.571Z,101015.34
2022-11-01T22:08:03.895Z,101020.16
2022-11-01T22:10:30.142Z,101023.78
2022-11-01T22:12:56.403Z,101014.53
2022-11-01T22:15:22.613Z,101004.47
2022-11-01T22:17:49.037Z,101004.47
2022-11-01T22:20:15.512Z,101012.09
2022-11-01T22:22:41.927Z,101002.03
2022-11-01T22:25:08.500Z,101004.03
2022-11-01T22:27:34.941Z,101009.66
2022-11-01T22:30:01.284Z,100992.78
2022-11-01T22:32:27.717Z,100998.81
2022-11-01T22:34:53.976Z,101003.63
2022-11-01T22:37:20.406Z,100992.38
2022-11-01T22:39:52.060Z,100988.72
2022-11-01T22:42:19.570Z,100992.75
2022-11-01T22:44:47.108Z,100992.75
2022-11-01T22:47:27.026Z,100985.50
2022-11-01T22:49:54.764Z,100983.88
2022-11-01T22:52:44.356Z,100981.47
2022-11-01T22:55:10.845Z,100976.19
2022-11-01T22:57:58.318Z,100981.41
2022-11-01T23:00:32.135Z,100984.56
2022-11-01T23:03:00.365Z,100973.34
2022-11-01T23:05:26.981Z,100967.28
2022-11-01T23:07:58.482Z,100969.28
2022-11-01T23:10:32.406Z,100965.28
2022-11-01T23:13:29.646Z,100966.88
2022-11-01T23:15:58.344Z,100975.31
2022-11-01T23:18:30.388Z,100976.13
2022-11-01T23:20:57.959Z,100974.13
2022-11-01T23:23:24.561Z,100954.44
2022-11-01T23:25:51.550Z,100964.47
2022-11-01T23:28:18.021Z,100964.91
2022-11-01T23:30:45.460Z,100971.78
2022-11-01T23:33:12.932Z,100972.19
2022-11-01T23:35:41.614Z,100964.22
2022-11-01T23:38:19.807Z,100968.63
2022-11-01T23:40:46.185Z,100962.25
2022-11-01T23:43:24.205Z,100960.66
2022-11-01T23:45:50.900Z,100949.88
2022-11-01T23:48:18.883Z,100940.66
2022-11-01T23:50:45.164Z,100935.47
2022-11-01T23:53:14.910Z,100940.31
2022-11-01T23:55:43.997Z,100943.16
2022-11-01T23:58:12.703Z,100948.03
